Davis City, Iowa
Current Conditions -  °F | °C
As of 11:53 PM on Saturday 25 Oct 2014 (Local Time) from KLWD Reporting Station
Clear Clear  
Wind Chill: 55°   Ceiling: Unl
Heat Index: 55°   Visibility: 10mi
Dew Point: 40°   Wind: 7mph
Humidity: 57%   Direction: 70°ENE
Pressure: 30.04"   Gusts: NA
Location:  40.64°N, 93.81°W
Report Text: KLWD 260453Z AUTO 07006KT 10SM CLR 13/04 A3004 RMK AO2 SLP171 T01280044
Loading
Personal Weather Stations






























Interactive Weather Map
Tropical Storm Tracking
New forecast layout! Learn more

10-Day Weather Forecast

Advertisements
Track Severe Weather on mobile